createdAt,value
2023-05-04T00:03:55.696Z,69.5
2023-05-04T00:09:01.652Z,68
2023-05-04T00:14:07.737Z,66
2023-05-04T00:19:13.790Z,66.5
2023-05-04T00:24:19.903Z,65
2023-05-04T00:29:26.033Z,65.5
2023-05-04T00:34:32.113Z,62
2023-05-04T00:39:38.186Z,62
2023-05-04T00:44:44.288Z,62.5
2023-05-04T00:49:50.377Z,62
2023-05-04T00:54:56.490Z,62.5
2023-05-04T01:00:02.771Z,62
2023-05-04T01:05:08.715Z,60.5
2023-05-04T01:10:14.798Z,61.5
2023-05-04T01:15:20.944Z,62
2023-05-04T01:20:26.944Z,63
2023-05-04T01:25:33.073Z,63
2023-05-04T01:30:39.178Z,63
2023-05-04T01:35:45.290Z,64.5
2023-05-04T01:40:51.327Z,63.5
2023-05-04T01:45:57.471Z,64
2023-05-04T01:51:03.505Z,61.5
2023-05-04T01:56:09.728Z,61.5
2023-05-04T02:01:15.804Z,61
2023-05-04T02:06:27.444Z,62.5
2023-05-04T02:11:33.509Z,62.5
2023-05-04T02:16:39.690Z,63
2023-05-04T02:21:45.743Z,63.5
2023-05-04T02:26:51.833Z,64
2023-05-04T02:31:57.990Z,62.5
2023-05-04T02:37:05.896Z,64.5
2023-05-04T02:42:10.107Z,62.5
2023-05-04T02:47:16.208Z,63
2023-05-04T02:52:22.270Z,63
2023-05-04T02:57:28.386Z,63.5
2023-05-04T03:02:34.503Z,60.5
2023-05-04T03:07:40.570Z,61.5
2023-05-04T03:12:46.713Z,61
2023-05-04T03:17:52.791Z,60.5
2023-05-04T03:22:58.851Z,61
2023-05-04T03:28:04.953Z,62
2023-05-04T03:33:11.065Z,62.5
2023-05-04T03:38:17.146Z,62.5
2023-05-04T03:43:23.219Z,61.5
2023-05-04T03:48:34.984Z,62.5
2023-05-04T03:53:46.721Z,63.5
2023-05-04T03:58:58.422Z,63
2023-05-04T04:04:10.164Z,61
2023-05-04T04:09:16.238Z,60.5
2023-05-04T04:14:22.414Z,59
2023-05-04T04:19:28.431Z,61
2023-05-04T04:24:34.531Z,58.5
2023-05-04T04:29:40.610Z,58.5
2023-05-04T04:34:46.752Z,59
2023-05-04T04:39:52.791Z,57.5
2023-05-04T04:44:58.876Z,58
2023-05-04T04:50:05.271Z,59
2023-05-04T04:55:11.079Z,60
2023-05-04T05:00:17.185Z,59.5
2023-05-04T05:05:23.258Z,53
2023-05-04T05:10:29.360Z,36
2023-05-04T05:15:35.472Z,32.5
2023-05-04T05:20:41.546Z,30
2023-05-04T05:25:47.645Z,27
2023-05-04T05:30:53.762Z,27
2023-05-04T05:35:59.837Z,27
2023-05-04T05:41:05.938Z,26.5
2023-05-04T05:46:17.702Z,27.5
2023-05-04T05:51:23.777Z,28.5
2023-05-04T05:56:29.848Z,27.5
2023-05-04T06:01:35.974Z,28.5
2023-05-04T06:06:43.689Z,28
2023-05-04T06:11:48.137Z,28
2023-05-04T06:16:54.223Z,27.5
2023-05-04T06:22:00.348Z,26.5
2023-05-04T06:27:06.433Z,29
2023-05-04T06:32:12.597Z,27
2023-05-04T06:37:18.629Z,28
2023-05-04T06:42:30.360Z,24
2023-05-04T06:47:36.488Z,28.5
2023-05-04T06:52:42.570Z,27.5
2023-05-04T06:57:48.618Z,28
2023-05-04T07:02:54.760Z,27.5
2023-05-04T07:08:00.870Z,26
2023-05-04T07:13:07.077Z,27.5
2023-05-04T07:18:13.203Z,30.5
2023-05-04T07:23:24.820Z,29.5
2023-05-04T07:28:36.489Z,27
2023-05-04T07:33:48.224Z,28
2023-05-04T07:38:59.955Z,29.5
2023-05-04T07:44:06.064Z,27
2023-05-04T07:49:12.146Z,28
2023-05-04T07:54:18.876Z,27
2023-05-04T07:59:24.358Z,28
2023-05-04T08:04:30.461Z,29.5
2023-05-04T08:09:36.551Z,27
2023-05-04T08:14:42.622Z,28
2023-05-04T08:19:48.755Z,30
2023-05-04T08:24:54.817Z,32
2023-05-04T08:30:00.973Z,33.5
2023-05-04T08:35:07.225Z,34.5
2023-05-04T08:40:13.095Z,37
2023-05-04T08:45:19.258Z,38
2023-05-04T08:50:25.343Z,39.5
2023-05-04T08:55:31.451Z,42.5
2023-05-04T09:00:37.560Z,45
2023-05-04T09:05:43.621Z,46.5
2023-05-04T09:10:49.708Z,50.5
2023-05-04T09:15:55.813Z,44
2023-05-04T09:21:07.544Z,46.5
2023-05-04T09:26:19.243Z,47
2023-05-04T09:31:25.389Z,47
2023-05-04T09:36:31.710Z,46.5
2023-05-04T09:41:37.500Z,47
2023-05-04T09:46:43.684Z,48
2023-05-04T09:51:49.709Z,48
2023-05-04T09:56:55.809Z,46.5
2023-05-04T10:02:07.525Z,43.5
2023-05-04T10:07:08.260Z,45
2023-05-04T10:12:14.098Z,45
2023-05-04T10:17:20.299Z,50
2023-05-04T10:22:26.322Z,50.5
2023-05-04T10:27:33.433Z,45
2023-05-04T10:32:38.506Z,43.5
2023-05-04T10:37:44.569Z,46
2023-05-04T10:42:50.642Z,43.5
2023-05-04T10:47:56.796Z,46.5
2023-05-04T10:53:02.845Z,47
2023-05-04T10:58:08.953Z,41
2023-05-04T11:03:15.113Z,40
2023-05-04T11:08:26.835Z,44
2023-05-04T11:13:38.534Z,44
2023-05-04T11:18:44.591Z,41.5
2023-05-04T11:23:50.709Z,46
2023-05-04T11:28:56.803Z,35.5
2023-05-04T11:34:02.897Z,41
2023-05-04T11:39:08.977Z,38.5
2023-05-04T11:44:15.091Z,43
2023-05-04T11:49:21.173Z,40
2023-05-04T11:54:27.264Z,38.5
2023-05-04T11:59:33.403Z,40
2023-05-04T12:04:39.530Z,40
2023-05-04T12:09:45.615Z,39.5
2023-05-04T12:14:51.640Z,40
2023-05-04T12:19:57.753Z,38.5
2023-05-04T12:25:03.864Z,41
2023-05-04T12:30:09.946Z,40.5
2023-05-04T12:35:16.078Z,40
2023-05-04T12:45:28.282Z,38.5
2023-05-04T12:50:34.305Z,40
2023-05-04T12:55:46.060Z,37
2023-05-04T13:00:58.214Z,39.5
2023-05-04T13:06:04.903Z,39
2023-05-04T13:11:09.962Z,37
2023-05-04T13:16:16.099Z,42
2023-05-04T13:21:22.174Z,39
2023-05-04T13:26:28.291Z,39.5
2023-05-04T13:31:34.418Z,40
2023-05-04T13:36:40.472Z,38.5
2023-05-04T13:41:46.583Z,42.5
2023-05-04T13:46:52.711Z,39
2023-05-04T13:51:58.746Z,39
2023-05-04T13:57:04.837Z,37
2023-05-04T14:02:10.949Z,37.5
2023-05-04T14:07:17.040Z,34.5
2023-05-04T14:12:23.093Z,38.5
2023-05-04T14:17:29.238Z,41
2023-05-04T14:22:37.979Z,38.5
2023-05-04T14:27:41.402Z,38
2023-05-04T14:32:48.510Z,40.5
2023-05-04T14:37:53.582Z,39.5
2023-05-04T14:43:05.312Z,41
2023-05-04T14:48:11.409Z,43
2023-05-04T14:53:17.514Z,38
2023-05-04T14:58:23.646Z,39
2023-05-04T15:03:29.821Z,37
2023-05-04T15:08:35.822Z,38
2023-05-04T15:13:41.902Z,37.5
2023-05-04T15:18:47.994Z,40
2023-05-04T15:23:54.082Z,42.5
2023-05-04T15:29:00.221Z,40
2023-05-04T15:34:06.303Z,46
2023-05-04T15:39:12.394Z,45.5
2023-05-04T15:44:18.474Z,46.5
2023-05-04T15:49:24.561Z,44
2023-05-04T15:54:30.667Z,40
2023-05-04T15:59:36.763Z,44
2023-05-04T16:04:42.841Z,41
2023-05-04T16:09:48.960Z,41.5
2023-05-04T16:14:55.029Z,38
2023-05-04T16:20:01.155Z,34.5
2023-05-04T16:25:12.844Z,37
2023-05-04T16:30:24.600Z,37
2023-05-04T16:35:30.689Z,36
2023-05-04T16:40:36.792Z,40
2023-05-04T16:45:42.901Z,42
2023-05-04T16:50:48.971Z,42.5
2023-05-04T16:55:55.076Z,40
2023-05-04T17:01:01.153Z,42
2023-05-04T17:06:07.254Z,47
2023-05-04T17:11:13.368Z,40
2023-05-04T17:16:19.532Z,40.5
2023-05-04T17:21:25.571Z,42.5
2023-05-04T17:26:31.676Z,47.5
2023-05-04T17:31:37.754Z,42
2023-05-04T17:36:43.836Z,46
2023-05-04T17:41:49.930Z,49
2023-05-04T17:46:56.039Z,46.5
2023-05-04T17:52:02.115Z,45
2023-05-04T17:57:08.223Z,43
2023-05-04T18:02:14.320Z,44
2023-05-04T18:07:20.408Z,45.5
2023-05-04T18:12:32.132Z,45
2023-05-04T18:17:43.888Z,46
2023-05-04T18:22:55.666Z,48.5
2023-05-04T18:28:01.801Z,49.5
2023-05-04T18:33:07.940Z,47.5
2023-05-04T18:38:13.943Z,50
2023-05-04T18:43:19.993Z,52.5
2023-05-04T18:48:26.086Z,54
2023-05-04T18:53:32.187Z,54
2023-05-04T18:58:38.310Z,54.5
2023-05-04T19:03:44.366Z,54
2023-05-04T19:08:50.490Z,53
2023-05-04T19:13:56.540Z,55
2023-05-04T19:19:02.633Z,54
2023-05-04T19:24:08.735Z,54.5
2023-05-04T19:29:14.990Z,54.5
2023-05-04T19:34:20.926Z,55
2023-05-04T19:39:26.993Z,52
2023-05-04T19:44:33.094Z,52
2023-05-04T19:49:39.205Z,54.5
2023-05-04T19:54:45.291Z,54
2023-05-04T19:59:51.376Z,54.5
2023-05-04T20:05:03.124Z,55
2023-05-04T20:10:09.424Z,52.5
2023-05-04T20:15:15.306Z,52.5
2023-05-04T20:20:21.432Z,53
2023-05-04T20:25:27.503Z,55.5
2023-05-04T20:30:33.604Z,55.5
2023-05-04T20:35:39.732Z,55
2023-05-04T20:40:45.786Z,59
2023-05-04T20:45:51.905Z,56
2023-05-04T20:51:06.909Z,54.5
2023-05-04T20:56:04.049Z,56
2023-05-04T21:01:10.152Z,58
2023-05-04T21:06:16.270Z,57
2023-05-04T21:11:22.365Z,56.5
2023-05-04T21:16:28.516Z,59
2023-05-04T21:21:34.545Z,60
2023-05-04T21:26:40.650Z,59.5
2023-05-04T21:31:46.849Z,60.5
2023-05-04T21:36:52.836Z,60.5
2023-05-04T21:41:58.973Z,61.5
2023-05-04T21:47:10.679Z,61
2023-05-04T21:52:22.388Z,61
2023-05-04T21:57:28.481Z,59.5
2023-05-04T22:02:34.657Z,62.5
2023-05-04T22:07:46.310Z,63
2023-05-04T22:12:52.418Z,63.5
2023-05-04T22:17:58.539Z,62.5
2023-05-04T22:23:04.652Z,62
2023-05-04T22:28:10.805Z,62
2023-05-04T22:33:16.811Z,64
2023-05-04T22:38:22.873Z,63.5
2023-05-04T22:43:28.997Z,65.5
2023-05-04T22:48:35.110Z,66
2023-05-04T22:53:41.162Z,63
2023-05-04T22:58:50.357Z,64
2023-05-04T23:03:53.453Z,63.5
2023-05-04T23:08:59.435Z,63.5
2023-05-04T23:14:05.588Z,64.5
2023-05-04T23:19:11.634Z,64.5
2023-05-04T23:24:17.749Z,64.5
2023-05-04T23:29:29.480Z,63.5
2023-05-04T23:34:35.636Z,64
2023-05-04T23:39:42.697Z,64
2023-05-04T23:44:47.774Z,63.5
2023-05-04T23:49:53.833Z,63
2023-05-04T23:54:59.917Z,64
